createdAt,value
2022-11-22T00:01:48.407Z,17.55
2022-11-22T00:07:04.187Z,17.53
2022-11-22T00:12:19.395Z,17.50
2022-11-22T00:17:35.177Z,17.50
2022-11-22T00:22:50.140Z,17.50
2022-11-22T00:28:05.448Z,17.50
2022-11-22T00:33:21.219Z,17.49
2022-11-22T00:38:36.194Z,17.48
2022-11-22T00:43:51.128Z,17.47
2022-11-22T00:49:06.161Z,17.46
2022-11-22T00:54:21.205Z,17.45
2022-11-22T00:59:36.168Z,17.45
2022-11-22T01:04:51.155Z,17.44
2022-11-22T01:10:06.209Z,17.43
2022-11-22T01:15:21.245Z,17.42
2022-11-22T01:20:36.149Z,17.42
2022-11-22T01:25:51.143Z,17.42
2022-11-22T01:31:06.151Z,17.44
2022-11-22T01:36:21.305Z,17.45
2022-11-22T01:41:37.174Z,17.46
2022-11-22T01:46:52.456Z,17.44
2022-11-22T01:52:08.160Z,17.43
2022-11-22T01:57:23.471Z,17.46
2022-11-22T02:02:39.255Z,17.45
2022-11-22T02:07:54.138Z,17.44
2022-11-22T02:13:09.577Z,17.44
2022-11-22T02:18:25.496Z,17.43
2022-11-22T02:23:41.176Z,17.41
2022-11-22T02:28:56.117Z,17.43
2022-11-22T02:34:11.211Z,17.42
2022-11-22T02:39:26.447Z,17.43
2022-11-22T02:44:42.522Z,17.41
2022-11-22T02:49:58.148Z,17.40
2022-11-22T02:55:13.507Z,17.38
2022-11-22T03:00:29.172Z,17.37
2022-11-22T03:05:44.509Z,17.38
2022-11-22T03:10:59.919Z,17.39
2022-11-22T03:16:15.195Z,17.38
2022-11-22T03:21:30.522Z,17.38
2022-11-22T03:26:46.204Z,17.36
2022-11-22T03:32:01.201Z,17.38
2022-11-22T03:37:16.177Z,17.38
2022-11-22T03:42:31.184Z,17.40
2022-11-22T03:47:46.176Z,17.39
2022-11-22T03:53:01.153Z,17.41
2022-11-22T03:58:16.159Z,17.41
2022-11-22T04:03:31.162Z,17.42
2022-11-22T04:08:46.568Z,17.45
2022-11-22T04:14:03.268Z,17.45
2022-11-22T04:19:18.490Z,17.46
2022-11-22T04:24:34.015Z,17.45
2022-11-22T04:29:49.195Z,17.47
2022-11-22T04:35:04.458Z,17.54
2022-11-22T04:40:20.206Z,17.58
2022-11-22T04:45:35.261Z,17.57
2022-11-22T04:50:50.176Z,17.54
2022-11-22T04:56:04.941Z,17.52
2022-11-22T05:01:20.629Z,17.51
2022-11-22T05:06:36.132Z,17.49
2022-11-22T05:11:51.228Z,17.48
2022-11-22T05:17:06.240Z,17.46
2022-11-22T05:22:21.197Z,17.45
2022-11-22T05:27:35.995Z,17.43
2022-11-22T05:32:51.299Z,17.41
2022-11-22T05:38:06.279Z,17.38
2022-11-22T05:43:21.229Z,17.37
2022-11-22T05:48:36.220Z,17.37
2022-11-22T05:53:51.213Z,17.36
2022-11-22T05:59:06.243Z,17.35
2022-11-22T06:04:21.202Z,17.35
2022-11-22T06:09:36.169Z,17.34
2022-11-22T06:14:51.175Z,17.35
2022-11-22T06:20:06.916Z,17.36
2022-11-22T06:25:22.280Z,17.36
2022-11-22T06:30:37.209Z,17.35
2022-11-22T06:35:51.927Z,17.35
2022-11-22T06:41:07.211Z,17.37
2022-11-22T06:46:22.374Z,17.38
2022-11-22T06:51:38.135Z,17.39
2022-11-22T06:56:53.525Z,17.39
2022-11-22T07:02:09.404Z,17.42
2022-11-22T07:07:25.240Z,17.43
2022-11-22T07:12:40.157Z,17.46
2022-11-22T07:17:55.163Z,17.47
2022-11-22T07:23:10.171Z,17.49
2022-11-22T07:28:25.578Z,17.50
2022-11-22T07:33:41.164Z,17.53
2022-11-22T07:38:56.178Z,17.54
2022-11-22T07:44:11.580Z,17.55
2022-11-22T07:49:27.743Z,17.57
2022-11-22T07:54:43.273Z,17.58
2022-11-22T07:59:58.206Z,17.60
2022-11-22T08:05:12.937Z,17.60
2022-11-22T08:10:28.501Z,17.63
2022-11-22T08:15:43.991Z,17.60
2022-11-22T08:20:59.543Z,17.64
2022-11-22T08:26:15.004Z,17.65
2022-11-22T08:31:30.244Z,17.66
2022-11-22T08:36:45.602Z,17.69
2022-11-22T08:42:01.218Z,17.69
2022-11-22T08:47:16.202Z,17.69
2022-11-22T08:52:31.226Z,17.70
2022-11-22T08:57:46.518Z,17.73
2022-11-22T09:03:02.455Z,17.73
2022-11-22T09:13:36.180Z,17.75
2022-11-22T09:18:51.174Z,17.77
2022-11-22T09:24:06.200Z,17.79
2022-11-22T09:29:21.284Z,17.80
2022-11-22T09:34:35.980Z,17.81
2022-11-22T09:39:51.512Z,17.84
2022-11-22T09:45:07.174Z,17.85
2022-11-22T09:50:22.315Z,17.87
2022-11-22T09:55:37.437Z,17.88
2022-11-22T10:00:53.345Z,17.90
2022-11-22T10:06:07.948Z,17.91
2022-11-22T10:11:23.232Z,17.92
2022-11-22T10:16:38.239Z,17.94
2022-11-22T10:21:53.231Z,17.97
2022-11-22T10:27:09.254Z,17.97
2022-11-22T10:32:24.196Z,18.00
2022-11-22T10:37:39.206Z,17.99
2022-11-22T10:42:54.502Z,18.02
2022-11-22T10:48:10.246Z,18.04
2022-11-22T10:53:24.942Z,18.05
2022-11-22T10:58:40.165Z,18.07
2022-11-22T11:03:55.364Z,18.09
2022-11-22T11:10:02.807Z,18.09
2022-11-22T11:14:45.188Z,18.11
2022-11-22T11:20:00.591Z,18.12
2022-11-22T11:25:16.608Z,18.13
2022-11-22T11:30:32.218Z,18.14
2022-11-22T11:35:47.539Z,18.18
2022-11-22T11:41:03.186Z,18.14
2022-11-22T11:46:18.341Z,18.21
2022-11-22T11:51:33.229Z,18.22
2022-11-22T11:56:48.255Z,18.24
2022-11-22T12:02:03.621Z,18.25
2022-11-22T12:07:19.261Z,18.25
2022-11-22T12:12:34.271Z,18.27
2022-11-22T12:17:49.317Z,18.29
2022-11-22T12:23:04.198Z,18.30
2022-11-22T12:28:19.272Z,18.32
2022-11-22T12:33:34.295Z,18.34
2022-11-22T12:38:49.197Z,18.34
2022-11-22T12:44:03.984Z,18.36
2022-11-22T12:49:19.210Z,18.38
2022-11-22T12:54:34.841Z,18.40
2022-11-22T12:59:50.236Z,18.40
2022-11-22T13:05:05.232Z,18.42
2022-11-22T13:10:20.231Z,18.43
2022-11-22T13:15:35.200Z,18.43
2022-11-22T13:20:50.698Z,18.45
2022-11-22T13:26:10.356Z,18.47
2022-11-22T13:31:28.224Z,18.48
2022-11-22T13:36:43.035Z,18.48
2022-11-22T13:41:58.219Z,18.49
2022-11-22T13:47:13.027Z,18.50
2022-11-22T13:52:28.234Z,18.50
2022-11-22T13:57:43.267Z,18.51
2022-11-22T14:02:58.212Z,18.51
2022-11-22T14:08:13.246Z,18.54
2022-11-22T14:13:28.226Z,18.54
2022-11-22T14:18:43.208Z,18.55
2022-11-22T14:23:58.323Z,18.55
2022-11-22T14:29:13.176Z,18.57
2022-11-22T14:34:28.400Z,18.56
2022-11-22T14:39:44.499Z,18.55
2022-11-22T14:45:00.217Z,18.57
2022-11-22T14:50:15.569Z,18.57
2022-11-22T14:55:31.214Z,18.57
2022-11-22T15:00:46.269Z,18.58
2022-11-22T15:09:13.833Z,18.58
2022-11-22T15:11:36.849Z,18.58
2022-11-22T16:01:32.064Z,18.57
2022-11-22T16:06:47.190Z,18.56
2022-11-22T16:12:02.237Z,18.57
2022-11-22T16:17:17.262Z,18.57
2022-11-22T16:22:33.329Z,18.57
2022-11-22T16:27:48.704Z,18.57
2022-11-22T16:33:04.658Z,18.59
2022-11-22T16:38:20.242Z,18.58
2022-11-22T16:43:35.056Z,18.58
2022-11-22T16:48:50.204Z,18.59
2022-11-22T16:54:05.600Z,18.59
2022-11-22T16:59:21.635Z,18.59
2022-11-22T17:04:40.993Z,18.58
2022-11-22T17:09:56.335Z,18.58
2022-11-22T17:15:11.233Z,18.57
2022-11-22T17:20:26.243Z,18.56
2022-11-22T17:25:41.751Z,18.55
2022-11-22T17:30:57.311Z,18.55
2022-11-22T17:36:12.284Z,18.55
2022-11-22T17:41:27.215Z,18.55
2022-11-22T17:46:42.204Z,18.55
2022-11-22T17:51:57.012Z,18.56
2022-11-22T17:57:12.556Z,18.55
2022-11-22T18:02:28.192Z,18.55
2022-11-22T18:07:43.358Z,18.55
2022-11-22T18:13:20.177Z,18.55
2022-11-22T18:18:55.655Z,18.54
2022-11-22T18:24:08.499Z,18.53
2022-11-22T18:29:41.568Z,18.53
2022-11-22T18:34:57.559Z,18.52
2022-11-22T18:40:13.312Z,18.52
2022-11-22T18:45:28.245Z,18.52
2022-11-22T18:50:43.301Z,18.54
2022-11-22T18:55:58.314Z,18.53
2022-11-22T19:01:14.278Z,18.55
2022-11-22T19:06:29.305Z,18.55
2022-11-22T19:11:44.500Z,18.54
2022-11-22T19:17:00.256Z,18.55
2022-11-22T19:22:15.302Z,18.54
2022-11-22T19:27:30.232Z,18.53
2022-11-22T19:32:45.569Z,18.54
2022-11-22T19:38:01.519Z,18.53
2022-11-22T19:43:17.019Z,18.52
2022-11-22T19:48:32.521Z,18.50
2022-11-22T19:53:48.278Z,18.51
2022-11-22T19:59:03.268Z,18.50
2022-11-22T20:04:18.626Z,18.50
2022-11-22T20:09:34.553Z,18.52
2022-11-22T20:14:50.618Z,18.55
2022-11-22T20:20:06.267Z,18.55
2022-11-22T20:25:21.586Z,18.56
2022-11-22T20:30:37.269Z,18.57
2022-11-22T20:35:52.249Z,18.58
2022-11-22T20:41:07.605Z,18.59
2022-11-22T20:46:23.282Z,18.60
2022-11-22T20:51:38.012Z,18.62
2022-11-22T20:56:53.239Z,18.64
2022-11-22T21:02:09.451Z,18.65
2022-11-22T21:07:25.389Z,18.65
2022-11-22T21:12:40.303Z,18.64
2022-11-22T21:18:23.021Z,18.65
2022-11-22T21:23:30.317Z,18.68
2022-11-22T21:28:45.235Z,18.66
2022-11-22T21:34:00.714Z,18.67
2022-11-22T21:39:16.581Z,18.67
2022-11-22T21:44:32.577Z,18.68
2022-11-22T21:49:48.191Z,18.67
2022-11-22T21:55:03.295Z,18.67
2022-11-22T22:00:18.218Z,18.68
2022-11-22T22:06:11.271Z,18.67
2022-11-22T22:11:26.303Z,18.67
2022-11-22T22:16:41.100Z,18.69
2022-11-22T22:21:56.238Z,18.67
2022-11-22T22:27:11.647Z,18.67
2022-11-22T22:32:27.578Z,18.68
2022-11-22T22:37:43.543Z,18.68
2022-11-22T22:42:59.618Z,18.67
2022-11-22T22:48:15.249Z,18.65
2022-11-22T22:53:30.218Z,18.63
2022-11-22T22:58:45.253Z,18.67
2022-11-22T23:04:00.324Z,18.67
2022-11-22T23:09:15.259Z,18.65
2022-11-22T23:14:30.338Z,18.65
2022-11-22T23:19:45.592Z,18.68
2022-11-22T23:25:01.249Z,18.67
2022-11-22T23:30:16.560Z,18.61
2022-11-22T23:35:32.594Z,18.63
2022-11-22T23:40:48.260Z,18.61
2022-11-22T23:46:03.573Z,18.61
2022-11-22T23:51:19.280Z,18.59
2022-11-22T23:56:34.551Z,18.58
